createdAt,value
2023-03-06T00:00:17.132Z,99142.25
2023-03-06T00:00:48.543Z,99145.47
2023-03-06T00:01:20.063Z,99140.34
2023-03-06T00:01:51.489Z,99144.97
2023-03-06T00:02:22.946Z,99136.00
2023-03-06T00:02:54.374Z,99141.44
2023-03-06T00:03:25.821Z,99136.50
2023-03-06T00:03:57.333Z,99135.69
2023-03-06T00:04:28.791Z,99131.34
2023-03-06T00:05:00.216Z,99138.41
2023-03-06T00:05:31.701Z,99125.91
2023-03-06T00:06:03.174Z,99130.22
2023-03-06T00:06:34.666Z,99131.34
2023-03-06T00:07:06.051Z,99135.19
2023-03-06T00:07:37.416Z,99136.00
2023-03-06T00:08:08.901Z,99128.63
2023-03-06T00:08:40.361Z,99130.22
2023-03-06T00:09:11.807Z,99126.38
2023-03-06T00:09:43.250Z,99129.13
2023-03-06T00:10:14.679Z,99127.50
2023-03-06T00:10:46.139Z,99132.47
2023-03-06T00:11:17.690Z,99131.34
2023-03-06T00:11:49.156Z,99124.78
2023-03-06T00:12:20.640Z,99122.84
2023-03-06T00:12:52.034Z,99129.13
2023-03-06T00:13:23.506Z,99128.63
2023-03-06T00:13:54.866Z,99120.44
2023-03-06T00:14:26.306Z,99129.44
2023-03-06T00:14:57.710Z,99125.91
2023-03-06T00:15:29.153Z,99121.25
2023-03-06T00:16:00.621Z,99120.94
2023-03-06T00:16:32.132Z,99124.59
2023-03-06T00:17:03.597Z,99113.06
2023-03-06T00:17:35.075Z,99118.34
2023-03-06T00:18:06.507Z,99110.97
2023-03-06T00:18:37.910Z,99124.28
2023-03-06T00:19:09.290Z,99123.16
2023-03-06T00:19:40.756Z,99115.00
2023-03-06T00:20:12.173Z,99115.78
2023-03-06T00:20:43.586Z,99112.25
2023-03-06T00:21:15.009Z,99122.38
2023-03-06T00:21:47.079Z,99118.84
2023-03-06T00:22:18.505Z,99123.47
2023-03-06T00:22:49.946Z,99116.91
2023-03-06T00:23:21.345Z,99116.91
2023-03-06T00:23:52.752Z,99121.25
2023-03-06T00:24:24.198Z,99108.72
2023-03-06T00:24:55.582Z,99119.63
2023-03-06T00:25:27.025Z,99115.00
2023-03-06T00:26:01.370Z,99119.63
2023-03-06T00:26:32.863Z,99117.22
2023-03-06T00:27:04.276Z,99115.31
2023-03-06T00:27:35.743Z,99112.25
2023-03-06T00:28:07.139Z,99117.72
2023-03-06T00:28:38.534Z,99110.66
2023-03-06T00:29:12.553Z,99112.25
2023-03-06T00:29:43.968Z,99113.06
2023-03-06T00:30:15.452Z,99110.34
2023-03-06T00:30:46.852Z,99115.00
2023-03-06T00:31:18.365Z,99100.25
2023-03-06T00:31:49.955Z,99113.88
2023-03-06T00:32:21.430Z,99108.72
2023-03-06T00:32:54.459Z,99111.78
2023-03-06T00:33:25.833Z,99106.81
2023-03-06T00:33:57.215Z,99117.22
2023-03-06T00:34:28.597Z,99112.56
2023-03-06T00:34:59.978Z,99109.34
2023-03-06T00:35:31.508Z,99109.03
2023-03-06T00:36:02.911Z,99109.34
2023-03-06T00:36:34.338Z,99111.78
2023-03-06T00:37:05.857Z,99109.03
2023-03-06T00:37:37.252Z,99104.41
2023-03-06T00:38:08.754Z,99104.09
2023-03-06T00:38:40.179Z,99106.31
2023-03-06T00:39:11.675Z,99109.03
2023-03-06T00:39:43.121Z,99103.28
2023-03-06T00:40:14.502Z,99103.28
2023-03-06T00:40:45.900Z,99101.97
2023-03-06T00:41:17.327Z,99097.81
2023-03-06T00:41:48.737Z,99090.44
2023-03-06T00:42:20.214Z,99097.81
2023-03-06T00:42:51.624Z,99096.72
2023-03-06T00:43:23.040Z,99091.56
2023-03-06T00:43:54.478Z,99089.97
2023-03-06T00:44:25.910Z,99088.84
2023-03-06T00:44:57.334Z,99086.13
2023-03-06T00:45:28.848Z,99086.13
2023-03-06T00:46:00.331Z,99086.91
2023-03-06T00:46:31.806Z,99084.50
2023-03-06T00:47:03.239Z,99090.75
2023-03-06T00:47:34.729Z,99085.00
2023-03-06T00:48:06.102Z,99091.56
2023-03-06T00:48:37.537Z,99087.22
2023-03-06T00:49:08.927Z,99080.66
2023-03-06T00:49:40.319Z,99082.28
2023-03-06T00:50:11.728Z,99082.91
2023-03-06T00:50:43.184Z,99086.91
2023-03-06T00:51:14.561Z,99082.41
2023-03-06T00:51:46.013Z,99080.16
2023-03-06T00:52:17.395Z,99082.59
2023-03-06T00:52:48.883Z,99080.66
2023-03-06T00:53:20.331Z,99079.84
2023-03-06T00:53:54.580Z,99078.25
2023-03-06T00:54:26.004Z,99079.84
2023-03-06T00:54:57.433Z,99070.88
2023-03-06T00:55:29.014Z,99075.22
2023-03-06T00:56:00.503Z,99077.94
2023-03-06T00:56:31.958Z,99079.84
2023-03-06T00:57:03.375Z,99080.66
2023-03-06T00:57:34.851Z,99070.88
2023-03-06T00:58:06.267Z,99074.41
2023-03-06T00:58:37.699Z,99076.00
2023-03-06T00:59:09.109Z,99069.75
2023-03-06T00:59:40.578Z,99072.47
2023-03-06T01:00:11.965Z,99076.81
2023-03-06T01:00:46.033Z,99073.59
2023-03-06T01:01:17.518Z,99073.59
2023-03-06T01:01:48.998Z,99075.22
2023-03-06T01:02:20.468Z,99070.38
2023-03-06T01:02:51.844Z,99069.25
2023-03-06T01:03:23.459Z,99071.19
2023-03-06T01:03:54.912Z,99070.88
2023-03-06T01:04:26.362Z,99071.69
2023-03-06T01:04:57.784Z,99069.25
2023-03-06T01:05:29.283Z,99072.00
2023-03-06T01:06:00.638Z,99069.75
2023-03-06T01:06:32.089Z,99072.47
2023-03-06T01:07:03.610Z,99076.00
2023-03-06T01:07:35.002Z,99074.41
2023-03-06T01:08:06.405Z,99067.03
2023-03-06T01:08:37.867Z,99071.69
2023-03-06T01:09:09.283Z,99068.94
2023-03-06T01:09:40.683Z,99071.06
2023-03-06T01:10:12.118Z,99063.19
2023-03-06T01:10:43.597Z,99069.13
2023-03-06T01:11:16.780Z,99067.03
2023-03-06T01:11:48.194Z,99058.84
2023-03-06T01:12:21.345Z,99068.94
2023-03-06T01:12:54.251Z,99068.16
2023-03-06T01:13:25.723Z,99071.38
2023-03-06T01:13:57.098Z,99066.22
2023-03-06T01:14:28.516Z,99059.34
2023-03-06T01:15:00.020Z,99067.53
2023-03-06T01:15:31.430Z,99064.31
2023-03-06T01:16:02.941Z,99059.66
2023-03-06T01:16:34.365Z,99060.47
2023-03-06T01:17:05.821Z,99059.34
2023-03-06T01:17:37.338Z,99063.19
2023-03-06T01:18:08.704Z,99056.13
2023-03-06T01:18:40.172Z,99058.34
2023-03-06T01:19:11.574Z,99063.50
2023-03-06T01:19:43.015Z,99060.47
2023-03-06T01:20:14.403Z,99060.16
2023-03-06T01:20:45.783Z,99056.13
2023-03-06T01:21:17.217Z,99062.38
2023-03-06T01:21:48.665Z,99051.47
2023-03-06T01:22:20.176Z,99053.41
2023-03-06T01:22:51.662Z,99058.84
2023-03-06T01:23:23.102Z,99053.41
2023-03-06T01:23:54.531Z,99055.81
2023-03-06T01:24:25.989Z,99058.03
2023-03-06T01:24:57.516Z,99051.78
2023-03-06T01:25:28.917Z,99054.50
2023-03-06T01:26:00.449Z,99054.22
2023-03-06T01:26:31.904Z,99052.59
2023-03-06T01:27:03.420Z,99055.00
2023-03-06T01:27:34.926Z,99053.41
2023-03-06T01:28:06.402Z,99052.28
2023-03-06T01:28:37.856Z,99043.78
2023-03-06T01:29:09.236Z,99048.75
2023-03-06T01:29:40.681Z,99055.00
2023-03-06T01:30:12.070Z,99047.13
2023-03-06T01:30:43.490Z,99047.94
2023-03-06T01:31:14.902Z,99042.50
2023-03-06T01:31:46.436Z,99041.38
2023-03-06T01:32:17.882Z,99044.09
2023-03-06T01:32:49.408Z,99041.06
2023-03-06T01:33:20.869Z,99037.53
2023-03-06T01:33:52.271Z,99043.31
2023-03-06T01:34:23.702Z,99035.94
2023-03-06T01:34:55.110Z,99040.25
2023-03-06T01:35:26.652Z,99037.84
2023-03-06T01:35:58.090Z,99043.31
2023-03-06T01:36:29.505Z,99040.88
2023-03-06T01:37:00.931Z,99037.03
2023-03-06T01:37:32.321Z,99037.84
2023-03-06T01:38:03.807Z,99041.38
2023-03-06T01:38:35.232Z,99034.00
2023-03-06T01:39:06.655Z,99037.84
2023-03-06T01:39:38.053Z,99038.97
2023-03-06T01:40:09.463Z,99037.84
2023-03-06T01:40:40.835Z,99027.25
2023-03-06T01:41:12.262Z,99032.41
2023-03-06T01:41:43.661Z,99033.19
2023-03-06T01:42:15.091Z,99035.94
2023-03-06T01:42:46.880Z,99037.84
2023-03-06T01:43:18.373Z,99043.31
2023-03-06T01:43:49.759Z,99035.13
2023-03-06T01:44:21.198Z,99034.81
2023-03-06T01:44:52.600Z,99034.00
2023-03-06T01:45:23.980Z,99033.69
2023-03-06T01:45:55.453Z,99037.84
2023-03-06T01:46:26.960Z,99037.84
2023-03-06T01:46:58.482Z,99034.63
2023-03-06T01:47:29.886Z,99031.59
2023-03-06T01:48:01.290Z,99035.75
2023-03-06T01:48:32.764Z,99029.97
2023-03-06T01:49:04.205Z,99025.34
2023-03-06T01:49:38.323Z,99031.28
2023-03-06T01:50:09.764Z,99029.34
2023-03-06T01:50:41.142Z,99028.56
2023-03-06T01:51:12.582Z,99033.69
2023-03-06T01:51:44.060Z,99027.75
2023-03-06T01:52:15.474Z,99026.13
2023-03-06T01:52:46.954Z,99022.59
2023-03-06T01:53:18.335Z,99030.78
2023-03-06T01:53:49.876Z,99026.94
2023-03-06T01:54:21.260Z,99030.78
2023-03-06T01:54:52.651Z,99025.81
2023-03-06T01:55:24.022Z,99026.94
2023-03-06T01:55:55.432Z,99032.41
2023-03-06T01:56:26.853Z,99029.97
2023-03-06T01:56:58.440Z,99026.13
2023-03-06T01:57:32.723Z,99024.53
2023-03-06T01:58:04.193Z,99018.75
2023-03-06T01:58:38.503Z,99025.66
2023-03-06T01:59:09.876Z,99014.75
2023-03-06T01:59:41.300Z,99024.53
2023-03-06T02:00:12.749Z,99023.41
2023-03-06T02:00:44.368Z,99025.03
2023-03-06T02:01:15.994Z,99015.22
2023-03-06T02:01:47.512Z,99022.28
2023-03-06T02:02:19.047Z,99018.75
2023-03-06T02:02:50.566Z,99023.09
2023-03-06T02:03:21.973Z,99025.50
2023-03-06T02:03:53.424Z,99023.91
2023-03-06T02:04:24.835Z,99023.09
2023-03-06T02:04:56.240Z,99024.22
2023-03-06T02:05:27.682Z,99012.50
2023-03-06T02:05:59.108Z,99020.69
2023-03-06T02:06:30.494Z,99016.03
2023-03-06T02:07:01.876Z,99015.22
2023-03-06T02:07:33.342Z,99016.84
2023-03-06T02:08:04.800Z,99020.69
2023-03-06T02:08:36.193Z,99019.56
2023-03-06T02:09:07.608Z,99020.69
2023-03-06T02:09:39.049Z,99019.06
2023-03-06T02:10:10.461Z,99007.38
2023-03-06T02:10:41.872Z,99009.28
2023-03-06T02:11:13.325Z,99013.63
2023-03-06T02:11:44.850Z,99011.69
2023-03-06T02:12:16.260Z,99012.50
2023-03-06T02:12:47.713Z,99011.38
2023-03-06T02:13:19.175Z,99013.31
2023-03-06T02:13:50.584Z,99008.97
2023-03-06T02:14:22.012Z,99009.47
2023-03-06T02:14:53.455Z,99011.88
2023-03-06T02:15:24.853Z,99006.75
2023-03-06T02:15:56.277Z,99005.94
2023-03-06T02:16:27.717Z,99006.25
2023-03-06T02:16:59.181Z,99000.81
2023-03-06T02:17:30.673Z,99009.78
2023-03-06T02:18:02.092Z,99006.56
2023-03-06T02:18:33.766Z,99012.00
2023-03-06T02:19:05.187Z,99012.00
2023-03-06T02:19:36.597Z,99011.38
2023-03-06T02:20:08.053Z,99002.09
2023-03-06T02:20:39.455Z,99009.78
2023-03-06T02:21:10.837Z,99008.66
2023-03-06T02:21:42.280Z,99005.94
2023-03-06T02:22:13.661Z,99011.38
2023-03-06T02:22:45.089Z,99004.31
2023-03-06T02:23:17.640Z,99008.66
2023-03-06T02:23:49.140Z,99001.28
2023-03-06T02:24:20.563Z,98997.28
2023-03-06T02:24:54.259Z,98999.19
2023-03-06T02:25:25.629Z,98994.53
2023-03-06T02:25:57.067Z,98998.88
2023-03-06T02:26:28.446Z,98995.84
2023-03-06T02:26:59.877Z,99005.13
2023-03-06T02:27:31.330Z,99007.53
2023-03-06T02:28:02.737Z,99002.91
2023-03-06T02:28:34.271Z,98995.84
2023-03-06T02:29:05.759Z,98993.91
2023-03-06T02:29:37.167Z,98998.06
2023-03-06T02:30:08.611Z,98993.44
2023-03-06T02:30:40.126Z,98988.47
2023-03-06T02:31:11.567Z,98995.84
2023-03-06T02:31:42.986Z,98998.56
2023-03-06T02:32:14.429Z,98997.75
2023-03-06T02:32:45.942Z,98992.31
2023-03-06T02:33:17.375Z,98991.19
2023-03-06T02:33:48.754Z,98989.56
2023-03-06T02:34:20.192Z,98994.22
2023-03-06T02:34:51.576Z,98993.09
2023-03-06T02:35:23.071Z,98983.31
2023-03-06T02:35:54.600Z,98999.69
2023-03-06T02:36:26.063Z,98990.19
2023-03-06T02:36:57.536Z,98990.19
2023-03-06T02:37:28.919Z,98986.69
2023-03-06T02:38:00.380Z,98991.00
2023-03-06T02:38:31.757Z,98986.38
2023-03-06T02:39:03.207Z,98982.03
2023-03-06T02:39:35.080Z,98979.31
2023-03-06T02:40:06.475Z,98986.38
2023-03-06T02:40:37.872Z,98982.03
2023-03-06T02:41:09.332Z,98983.63
2023-03-06T02:41:40.765Z,98979.78
2023-03-06T02:42:12.224Z,98979.78
2023-03-06T02:42:43.645Z,98979.78
2023-03-06T02:43:15.043Z,98975.47
2023-03-06T02:43:46.516Z,98984.94
2023-03-06T02:44:17.948Z,98978.69
2023-03-06T02:44:49.440Z,98976.56
2023-03-06T02:45:20.792Z,98984.75
2023-03-06T02:45:52.320Z,98977.88
2023-03-06T02:46:23.786Z,98970.81
2023-03-06T02:46:55.193Z,98978.19
2023-03-06T02:47:29.111Z,98977.06
2023-03-06T02:48:00.544Z,98975.47
2023-03-06T02:48:31.978Z,98971.94
2023-03-06T02:49:03.518Z,98969.69
2023-03-06T02:49:34.904Z,98970.00
2023-03-06T02:50:06.345Z,98975.94
2023-03-06T02:50:37.847Z,98968.88
2023-03-06T02:51:09.254Z,98970.00
2023-03-06T02:51:43.620Z,98972.72
2023-03-06T02:52:14.990Z,98965.03
2023-03-06T02:52:46.378Z,98968.88
2023-03-06T02:53:17.792Z,98968.88
2023-03-06T02:53:49.202Z,98967.28
2023-03-06T02:54:20.588Z,98967.28
2023-03-06T02:54:52.033Z,98966.97
2023-03-06T02:55:23.512Z,98960.22
2023-03-06T02:55:55.041Z,98962.94
2023-03-06T02:56:26.473Z,98961.03
2023-03-06T02:56:57.928Z,98964.56
2023-03-06T02:57:29.325Z,98962.63
2023-03-06T02:58:00.766Z,98971.63
2023-03-06T02:58:32.241Z,98966.97
2023-03-06T02:59:03.721Z,98961.50
2023-03-06T02:59:35.248Z,98961.81
2023-03-06T03:00:06.638Z,98968.88
2023-03-06T03:00:39.025Z,98962.13
2023-03-06T03:01:11.485Z,98961.81
2023-03-06T03:01:42.975Z,98962.63
2023-03-06T03:02:14.511Z,98960.72
2023-03-06T03:02:45.927Z,98959.09
2023-03-06T03:03:20.186Z,98955.25
2023-03-06T03:03:51.619Z,98960.72
2023-03-06T03:04:23.012Z,98963.44
2023-03-06T03:04:54.559Z,98956.06
2023-03-06T03:05:26.131Z,98956.88
2023-03-06T03:05:57.577Z,98956.88
2023-03-06T03:06:28.985Z,98953.66
2023-03-06T03:07:00.407Z,98959.91
2023-03-06T03:07:31.834Z,98954.44
2023-03-06T03:08:03.236Z,98952.53
2023-03-06T03:08:34.648Z,98952.53
2023-03-06T03:09:06.108Z,98955.25
2023-03-06T03:09:37.595Z,98955.44
2023-03-06T03:10:08.968Z,98955.56
2023-03-06T03:10:40.376Z,98952.53
2023-03-06T03:11:11.967Z,98952.22
2023-03-06T03:11:43.363Z,98953.66
2023-03-06T03:12:14.836Z,98957.19
2023-03-06T03:12:46.259Z,98947.88
2023-03-06T03:13:17.637Z,98950.28
2023-03-06T03:13:49.032Z,98949.00
2023-03-06T03:14:20.434Z,98954.13
2023-03-06T03:14:51.865Z,98951.09
2023-03-06T03:15:23.258Z,98953.34
2023-03-06T03:15:54.727Z,98946.75
2023-03-06T03:16:26.205Z,98954.31
2023-03-06T03:16:57.615Z,98947.56
2023-03-06T03:17:29.037Z,98954.44
2023-03-06T03:18:00.476Z,98955.75
2023-03-06T03:18:31.853Z,98947.56
2023-03-06T03:19:03.312Z,98951.41
2023-03-06T03:19:34.739Z,98947.56
2023-03-06T03:20:06.206Z,98943.22
2023-03-06T03:20:37.615Z,98948.69
2023-03-06T03:21:09.041Z,98946.75
2023-03-06T03:21:40.553Z,98956.88
2023-03-06T03:22:12.009Z,98944.34
2023-03-06T03:22:45.989Z,98951.72
2023-03-06T03:23:17.407Z,98951.72
2023-03-06T03:23:48.867Z,98956.38
2023-03-06T03:24:23.088Z,98945.47
2023-03-06T03:24:54.726Z,98949.81
2023-03-06T03:25:26.243Z,98946.59
2023-03-06T03:25:57.716Z,98945.47
2023-03-06T03:26:29.156Z,98941.13
2023-03-06T03:27:00.642Z,98944.66
2023-03-06T03:27:32.057Z,98942.75
2023-03-06T03:28:03.481Z,98948.19
2023-03-06T03:28:34.860Z,98943.84
2023-03-06T03:29:06.243Z,98943.84
2023-03-06T03:29:37.763Z,98937.28
2023-03-06T03:30:09.170Z,98941.13
2023-03-06T03:30:40.557Z,98947.41
2023-03-06T03:31:11.938Z,98941.13
2023-03-06T03:31:43.356Z,98941.13
2023-03-06T03:32:14.822Z,98942.75
2023-03-06T03:32:46.213Z,98937.28
2023-03-06T03:33:17.603Z,98940.03
2023-03-06T03:33:49.125Z,98942.75
2023-03-06T03:34:20.522Z,98940.81
2023-03-06T03:34:52.008Z,98938.59
2023-03-06T03:35:23.448Z,98940.50
2023-03-06T03:35:54.944Z,98935.06
2023-03-06T03:36:26.382Z,98928.97
2023-03-06T03:36:57.775Z,98935.06
2023-03-06T03:37:29.208Z,98928.47
2023-03-06T03:38:00.559Z,98931.69
2023-03-06T03:38:31.993Z,98936.34
2023-03-06T03:39:03.465Z,98930.09
2023-03-06T03:39:34.918Z,98928.16
2023-03-06T03:40:06.406Z,98932.81
2023-03-06T03:40:37.869Z,98925.75
2023-03-06T03:41:09.319Z,98928.47
2023-03-06T03:41:40.761Z,98928.00
2023-03-06T03:42:12.134Z,98930.91
2023-03-06T03:42:43.648Z,98935.06
2023-03-06T03:43:15.075Z,98932.00
2023-03-06T03:43:46.714Z,98922.72
2023-03-06T03:44:18.175Z,98927.38
2023-03-06T03:44:49.690Z,98932.00
2023-03-06T03:45:21.155Z,98927.38
2023-03-06T03:45:52.623Z,98934.75
2023-03-06T03:46:24.076Z,98930.41
2023-03-06T03:46:55.521Z,98926.56
2023-03-06T03:47:26.983Z,98923.84
2023-03-06T03:47:58.420Z,98928.47
2023-03-06T03:48:29.812Z,98925.75
2023-03-06T03:49:01.326Z,98930.41
2023-03-06T03:49:32.719Z,98921.91
2023-03-06T03:50:04.210Z,98926.88
2023-03-06T03:50:35.638Z,98922.53
2023-03-06T03:51:07.057Z,98920.31
2023-03-06T03:51:38.452Z,98919.50
2023-03-06T03:52:09.892Z,98920.13
2023-03-06T03:52:41.265Z,98924.16
2023-03-06T03:53:12.659Z,98925.75
2023-03-06T03:53:44.106Z,98919.19
2023-03-06T03:54:15.571Z,98916.47
2023-03-06T03:54:46.989Z,98923.53
2023-03-06T03:55:18.429Z,98917.59
2023-03-06T03:55:49.832Z,98922.72
2023-03-06T03:56:21.233Z,98924.66
2023-03-06T03:56:52.645Z,98922.22
2023-03-06T03:57:24.038Z,98920.31
2023-03-06T03:57:55.432Z,98918.38
2023-03-06T03:58:26.932Z,98918.69
2023-03-06T03:58:58.417Z,98918.69
2023-03-06T03:59:29.788Z,98919.50
2023-03-06T04:00:03.535Z,98913.25
2023-03-06T04:00:34.926Z,98919.19
2023-03-06T04:01:06.297Z,98920.78
2023-03-06T04:01:39.573Z,98918.06
2023-03-06T04:02:11.272Z,98918.38
2023-03-06T04:02:42.731Z,98921.91
2023-03-06T04:03:14.177Z,98920.78
2023-03-06T04:03:45.631Z,98916.47
2023-03-06T04:04:19.291Z,98913.75
2023-03-06T04:04:50.789Z,98918.38
2023-03-06T04:05:22.239Z,98914.84
2023-03-06T04:05:53.689Z,98913.25
2023-03-06T04:06:25.101Z,98915.66
2023-03-06T04:06:56.533Z,98913.75
2023-03-06T04:07:27.915Z,98912.94
2023-03-06T04:07:59.304Z,98912.13
2023-03-06T04:08:30.702Z,98914.22
2023-03-06T04:09:02.145Z,98911.00
2023-03-06T04:09:33.568Z,98911.81
2023-03-06T04:10:04.978Z,98904.75
2023-03-06T04:10:38.164Z,98907.00
2023-03-06T04:11:09.616Z,98909.41
2023-03-06T04:11:40.987Z,98912.13
2023-03-06T04:12:12.415Z,98906.69
2023-03-06T04:12:43.854Z,98901.22
2023-03-06T04:13:15.279Z,98903.16
2023-03-06T04:13:49.167Z,98908.91
2023-03-06T04:14:20.655Z,98910.03
2023-03-06T04:14:52.052Z,98903.16
2023-03-06T04:15:23.472Z,98911.31
2023-03-06T04:15:54.900Z,98907.78
2023-03-06T04:16:26.407Z,98914.06
2023-03-06T04:16:57.849Z,98906.19
2023-03-06T04:17:29.289Z,98906.19
2023-03-06T04:18:00.751Z,98915.47
2023-03-06T04:18:32.249Z,98910.84
2023-03-06T04:19:03.676Z,98906.19
2023-03-06T04:19:35.225Z,98900.72
2023-03-06T04:20:06.702Z,98907.78
2023-03-06T04:20:38.107Z,98904.25
2023-03-06T04:21:09.549Z,98901.53
2023-03-06T04:21:40.961Z,98899.94
2023-03-06T04:22:12.443Z,98904.25
2023-03-06T04:22:43.858Z,98900.72
2023-03-06T04:23:15.246Z,98902.66
2023-03-06T04:23:46.672Z,98902.97
2023-03-06T04:24:18.242Z,98902.34
2023-03-06T04:24:49.766Z,98903.47
2023-03-06T04:25:21.183Z,98894.97
2023-03-06T04:25:52.589Z,98901.22
2023-03-06T04:26:23.974Z,98897.69
2023-03-06T04:26:58.312Z,98900.41
2023-03-06T04:27:29.733Z,98895.78
2023-03-06T04:28:01.126Z,98897.38
2023-03-06T04:28:32.539Z,98900.41
2023-03-06T04:29:03.991Z,98895.78
2023-03-06T04:29:35.387Z,98902.34
2023-03-06T04:30:06.916Z,98900.25
2023-03-06T04:30:38.281Z,98899.94
2023-03-06T04:31:09.698Z,98903.47
2023-03-06T04:31:41.179Z,98903.94
2023-03-06T04:32:12.574Z,98902.34
2023-03-06T04:32:46.640Z,98896.88
2023-03-06T04:33:18.088Z,98897.19
2023-03-06T04:33:49.458Z,98892.06
2023-03-06T04:34:20.907Z,98894.47
2023-03-06T04:34:52.361Z,98900.72
2023-03-06T04:35:23.907Z,98896.88
2023-03-06T04:35:55.471Z,98897.69
2023-03-06T04:36:26.915Z,98893.84
2023-03-06T04:36:58.387Z,98884.88
2023-03-06T04:37:29.787Z,98886.31
2023-03-06T04:38:01.230Z,98889.81
2023-03-06T04:38:32.727Z,98892.56
2023-03-06T04:39:04.227Z,98884.38
2023-03-06T04:39:35.753Z,98887.91
2023-03-06T04:40:07.166Z,98887.09
2023-03-06T04:40:38.789Z,98891.75
2023-03-06T04:41:10.478Z,98886.31
2023-03-06T04:41:42.043Z,98878.59
2023-03-06T04:42:13.665Z,98886.78
2023-03-06T04:42:45.082Z,98884.06
2023-03-06T04:43:16.559Z,98889.50
2023-03-06T04:43:47.922Z,98886.63
2023-03-06T04:44:19.345Z,98882.78
2023-03-06T04:44:50.767Z,98884.69
2023-03-06T04:45:22.188Z,98881.16
2023-03-06T04:45:53.690Z,98878.13
2023-03-06T04:46:25.191Z,98879.72
2023-03-06T04:46:56.581Z,98882.13
2023-03-06T04:47:28.040Z,98878.59
2023-03-06T04:47:59.574Z,98871.56
2023-03-06T04:48:31.005Z,98880.53
2023-03-06T04:49:02.450Z,98872.03
2023-03-06T04:49:33.868Z,98870.91
2023-03-06T04:50:05.274Z,98867.69
2023-03-06T04:50:36.704Z,98866.59
2023-03-06T04:51:08.168Z,98873.97
2023-03-06T04:51:39.594Z,98865.78
2023-03-06T04:52:11.053Z,98869.31
2023-03-06T04:52:42.480Z,98866.91
2023-03-06T04:53:14.070Z,98869.63
2023-03-06T04:53:45.465Z,98866.59
2023-03-06T04:54:18.944Z,98864.66
2023-03-06T04:54:50.483Z,98866.59
2023-03-06T04:55:21.897Z,98862.25
2023-03-06T04:55:53.364Z,98863.53
2023-03-06T04:56:24.789Z,98860.34
2023-03-06T04:56:56.312Z,98864.19
2023-03-06T04:57:27.761Z,98860.34
2023-03-06T04:57:59.191Z,98861.94
2023-03-06T04:58:30.649Z,98857.91
2023-03-06T04:59:02.058Z,98857.59
2023-03-06T04:59:33.516Z,98860.34
2023-03-06T05:00:07.742Z,98861.94
2023-03-06T05:00:39.144Z,98861.13
2023-03-06T05:01:10.692Z,98858.72
2023-03-06T05:01:42.216Z,98858.72
2023-03-06T05:02:13.891Z,98859.84
2023-03-06T05:02:45.326Z,98855.69
2023-03-06T05:03:16.696Z,98856.81
2023-03-06T05:03:48.154Z,98859.53
2023-03-06T05:04:19.649Z,98857.44
2023-03-06T05:04:51.107Z,98861.75
2023-03-06T05:05:22.689Z,98860.34
2023-03-06T05:05:54.133Z,98862.75
2023-03-06T05:06:25.537Z,98857.28
2023-03-06T05:06:56.972Z,98852.47
2023-03-06T05:07:28.356Z,98861.75
2023-03-06T05:07:59.927Z,98857.13
2023-03-06T05:08:31.345Z,98855.19
2023-03-06T05:09:02.821Z,98856.00
2023-03-06T05:09:34.291Z,98865.78
2023-03-06T05:10:05.697Z,98862.56
2023-03-06T05:10:37.110Z,98857.91
2023-03-06T05:11:08.499Z,98862.88
2023-03-06T05:11:39.913Z,98853.59
2023-03-06T05:12:11.327Z,98859.03
2023-03-06T05:12:42.739Z,98861.75
2023-03-06T05:13:17.061Z,98867.22
2023-03-06T05:13:48.487Z,98861.75
2023-03-06T05:14:20.019Z,98866.41
2023-03-06T05:14:51.459Z,98857.91
2023-03-06T05:15:22.868Z,98854.06
2023-03-06T05:15:54.391Z,98861.44
2023-03-06T05:16:25.868Z,98863.38
2023-03-06T05:16:57.346Z,98868.81
2023-03-06T05:17:28.797Z,98861.44
2023-03-06T05:18:00.256Z,98856.81
2023-03-06T05:18:31.704Z,98859.53
2023-03-06T05:19:03.102Z,98861.44
2023-03-06T05:19:34.639Z,98857.59
2023-03-06T05:20:06.012Z,98864.19
2023-03-06T05:20:37.440Z,98858.41
2023-03-06T05:21:08.840Z,98855.69
2023-03-06T05:21:40.226Z,98857.59
2023-03-06T05:22:11.713Z,98851.34
2023-03-06T05:22:43.129Z,98857.91
2023-03-06T05:23:14.539Z,98864.97
2023-03-06T05:23:45.998Z,98859.53
2023-03-06T05:24:17.436Z,98858.72
2023-03-06T05:24:48.950Z,98861.13
2023-03-06T05:25:20.357Z,98852.47
2023-03-06T05:25:51.800Z,98860.66
2023-03-06T05:26:23.233Z,98859.84
2023-03-06T05:26:54.645Z,98857.13
2023-03-06T05:27:26.074Z,98862.56
2023-03-06T05:27:57.487Z,98861.75
2023-03-06T05:28:28.913Z,98854.38
2023-03-06T05:29:00.317Z,98856.31
2023-03-06T05:29:31.761Z,98864.19
2023-03-06T05:30:03.315Z,98860.34
2023-03-06T05:30:34.722Z,98856.47
2023-03-06T05:31:06.179Z,98863.06
2023-03-06T05:31:37.643Z,98866.91
2023-03-06T05:32:09.128Z,98863.38
2023-03-06T05:32:40.566Z,98857.13
2023-03-06T05:33:11.943Z,98858.72
2023-03-06T05:33:43.383Z,98859.84
2023-03-06T05:34:14.765Z,98854.72
2023-03-06T05:34:46.246Z,98861.28
2023-03-06T05:35:17.723Z,98863.69
2023-03-06T05:35:49.123Z,98857.91
2023-03-06T05:36:20.534Z,98852.78
2023-03-06T05:36:51.966Z,98857.13
2023-03-06T05:37:23.442Z,98856.00
2023-03-06T05:37:55.234Z,98865.28
2023-03-06T05:38:26.655Z,98862.56
2023-03-06T05:38:58.069Z,98863.38
2023-03-06T05:39:29.476Z,98857.91
2023-03-06T05:40:00.919Z,98859.69
2023-03-06T05:40:32.356Z,98859.53
2023-03-06T05:41:03.763Z,98859.22
2023-03-06T05:41:35.158Z,98851.34
2023-03-06T05:42:06.549Z,98850.06
2023-03-06T05:42:37.979Z,98850.84
2023-03-06T05:43:09.411Z,98851.97
2023-03-06T05:43:40.865Z,98849.25
2023-03-06T05:44:12.259Z,98850.06
2023-03-06T05:44:43.668Z,98858.72
2023-03-06T05:45:15.102Z,98853.28
2023-03-06T05:45:46.597Z,98854.38
2023-03-06T05:46:18.207Z,98855.69
2023-03-06T05:46:49.693Z,98857.44
2023-03-06T05:47:21.077Z,98855.50
2023-03-06T05:47:52.474Z,98849.25
2023-03-06T05:48:23.832Z,98851.66
2023-03-06T05:48:55.256Z,98859.53
2023-03-06T05:49:26.672Z,98850.53
2023-03-06T05:49:58.052Z,98850.84
2023-03-06T05:50:29.484Z,98855.19
2023-03-06T05:51:00.929Z,98852.59
2023-03-06T05:51:32.391Z,98855.50
2023-03-06T05:52:03.813Z,98854.72
2023-03-06T05:52:35.220Z,98852.78
2023-03-06T05:53:06.663Z,98851.19
2023-03-06T05:53:38.093Z,98851.97
2023-03-06T05:54:09.500Z,98853.72
2023-03-06T05:54:40.918Z,98856.63
2023-03-06T05:55:12.295Z,98853.09
2023-03-06T05:55:43.691Z,98853.59
2023-03-06T05:56:15.191Z,98854.38
2023-03-06T05:56:46.742Z,98851.66
2023-03-06T05:57:18.207Z,98854.06
2023-03-06T05:57:49.638Z,98852.47
2023-03-06T05:58:21.016Z,98860.66
2023-03-06T05:58:52.512Z,98858.72
2023-03-06T05:59:23.932Z,98851.66
2023-03-06T05:59:55.365Z,98850.84
2023-03-06T06:00:26.849Z,98859.03
2023-03-06T06:00:58.282Z,98855.50
2023-03-06T06:01:29.784Z,98857.13
2023-03-06T06:02:01.305Z,98854.38
2023-03-06T06:02:32.911Z,98853.28
2023-03-06T06:03:04.308Z,98864.19
2023-03-06T06:03:35.742Z,98859.53
2023-03-06T06:04:07.225Z,98855.19
2023-03-06T06:04:38.624Z,98852.47
2023-03-06T06:05:12.557Z,98860.34
2023-03-06T06:05:44.449Z,98854.06
2023-03-06T06:06:15.907Z,98853.75
2023-03-06T06:06:47.376Z,98851.34
2023-03-06T06:07:18.806Z,98852.47
2023-03-06T06:07:50.237Z,98855.50
2023-03-06T06:08:21.603Z,98851.66
2023-03-06T06:08:55.744Z,98853.91
2023-03-06T06:09:27.271Z,98848.94
2023-03-06T06:09:58.710Z,98859.03
2023-03-06T06:10:30.099Z,98853.91